sensor_id;sensor_type;location;lat;lon;timestamp;temperature;humidity
3940;DHT22;1984;48.312;9.244;2022-10-16T00:00:30;14.00;99.90
3940;DHT22;1984;48.312;9.244;2022-10-16T00:02:55;14.00;99.90
3940;DHT22;1984;48.312;9.244;2022-10-16T00:05:21;14.00;99.90
3940;DHT22;1984;48.312;9.244;2022-10-16T00:07:46;14.00;99.90
3940;DHT22;1984;48.312;9.244;2022-10-16T00:10:12;14.00;99.90
3940;DHT22;1984;48.312;9.244;2022-10-16T00:12:37;13.90;99.90
3940;DHT22;1984;48.312;9.244;2022-10-16T00:15:03;13.90;99.90
3940;DHT22;1984;48.312;9.244;2022-10-16T00:17:30;13.90;99.90
3940;DHT22;1984;48.312;9.244;2022-10-16T00:19:55;13.90;99.90
3940;DHT22;1984;48.312;9.244;2022-10-16T00:22:22;13.90;99.90
3940;DHT22;1984;48.312;9.244;2022-10-16T00:24:47;13.90;99.90
3940;DHT22;1984;48.312;9.244;2022-10-16T00:27:13;13.90;99.90
3940;DHT22;1984;48.312;9.244;2022-10-16T00:29:38;13.90;99.90
3940;DHT22;1984;48.312;9.244;2022-10-16T00:32:04;13.80;99.90
3940;DHT22;1984;48.312;9.244;2022-10-16T00:34:29;13.80;99.90
3940;DHT22;1984;48.312;9.244;2022-10-16T00:36:55;13.80;99.90
3940;DHT22;1984;48.312;9.244;2022-10-16T00:39:21;13.80;99.90
3940;DHT22;1984;48.312;9.244;2022-10-16T00:41:47;13.80;99.90
3940;DHT22;1984;48.312;9.244;2022-10-16T00:44:42;13.80;99.90
3940;DHT22;1984;48.312;9.244;2022-10-16T00:47:34;13.80;99.90
3940;DHT22;1984;48.312;9.244;2022-10-16T00:50:28;13.70;99.90
3940;DHT22;1984;48.312;9.244;2022-10-16T00:52:55;13.70;99.90
3940;DHT22;1984;48.312;9.244;2022-10-16T00:55:22;13.70;99.90
3940;DHT22;1984;48.312;9.244;2022-10-16T00:57:48;13.70;99.90
3940;DHT22;1984;48.312;9.244;2022-10-16T01:00:18;13.60;99.90
3940;DHT22;1984;48.312;9.244;2022-10-16T01:02:43;13.60;99.90
3940;DHT22;1984;48.312;9.244;2022-10-16T01:05:09;13.60;99.90
3940;DHT22;1984;48.312;9.244;2022-10-16T01:10:18;13.60;99.90
3940;DHT22;1984;48.312;9.244;2022-10-16T01:21:32;13.60;99.90
3940;DHT22;1984;48.312;9.244;2022-10-16T01:27:13;13.60;99.90
3940;DHT22;1984;48.312;9.244;2022-10-16T01:29:53;13.60;99.90
3940;DHT22;1984;48.312;9.244;2022-10-16T01:32:33;13.60;99.90
3940;DHT22;1984;48.312;9.244;2022-10-16T01:35:35;13.60;99.90
3940;DHT22;1984;48.312;9.244;2022-10-16T01:38:25;13.50;99.90
3940;DHT22;1984;48.312;9.244;2022-10-16T01:40:59;13.50;99.90
3940;DHT22;1984;48.312;9.244;2022-10-16T01:43:28;13.50;99.90
3940;DHT22;1984;48.312;9.244;2022-10-16T01:45:57;13.50;99.90
3940;DHT22;1984;48.312;9.244;2022-10-16T01:48:24;13.50;99.90
3940;DHT22;1984;48.312;9.244;2022-10-16T01:51:05;13.60;99.90
3940;DHT22;1984;48.312;9.244;2022-10-16T01:53:32;13.50;99.90
3940;DHT22;1984;48.312;9.244;2022-10-16T01:55:59;13.60;99.90
3940;DHT22;1984;48.312;9.244;2022-10-16T01:58:25;13.60;99.90
3940;DHT22;1984;48.312;9.244;2022-10-16T02:00:54;13.60;99.90
3940;DHT22;1984;48.312;9.244;2022-10-16T02:03:20;13.60;99.90
3940;DHT22;1984;48.312;9.244;2022-10-16T02:05:51;13.60;99.90
3940;DHT22;1984;48.312;9.244;2022-10-16T02:08:18;13.60;99.90
3940;DHT22;1984;48.312;9.244;2022-10-16T02:10:44;13.60;99.90
3940;DHT22;1984;48.312;9.244;2022-10-16T02:13:17;13.70;99.90
3940;DHT22;1984;48.312;9.244;2022-10-16T02:15:44;13.60;99.90
3940;DHT22;1984;48.312;9.244;2022-10-16T02:18:10;13.70;99.90
3940;DHT22;1984;48.312;9.244;2022-10-16T02:21:30;13.70;99.90
3940;DHT22;1984;48.312;9.244;2022-10-16T02:24:13;13.70;99.90
3940;DHT22;1984;48.312;9.244;2022-10-16T02:29:24;13.70;99.90
3940;DHT22;1984;48.312;9.244;2022-10-16T02:31:58;13.70;99.90
3940;DHT22;1984;48.312;9.244;2022-10-16T02:34:25;13.70;99.90
3940;DHT22;1984;48.312;9.244;2022-10-16T02:36:52;13.60;99.90
3940;DHT22;1984;48.312;9.244;2022-10-16T02:39:19;13.60;99.90
3940;DHT22;1984;48.312;9.244;2022-10-16T02:41:45;13.60;99.90
3940;DHT22;1984;48.312;9.244;2022-10-16T02:44:11;13.60;99.90
3940;DHT22;1984;48.312;9.244;2022-10-16T02:46:36;13.70;99.90
3940;DHT22;1984;48.312;9.244;2022-10-16T02:49:02;13.60;99.90
3940;DHT22;1984;48.312;9.244;2022-10-16T02:51:28;13.70;99.90
3940;DHT22;1984;48.312;9.244;2022-10-16T02:53:53;13.70;99.90
3940;DHT22;1984;48.312;9.244;2022-10-16T02:56:19;13.70;99.90
3940;DHT22;1984;48.312;9.244;2022-10-16T02:58:44;13.70;99.90
3940;DHT22;1984;48.312;9.244;2022-10-16T03:01:10;13.70;99.90
3940;DHT22;1984;48.312;9.244;2022-10-16T03:03:37;13.70;99.90
3940;DHT22;1984;48.312;9.244;2022-10-16T03:06:03;13.70;99.90
3940;DHT22;1984;48.312;9.244;2022-10-16T03:08:28;13.70;99.90
3940;DHT22;1984;48.312;9.244;2022-10-16T03:10:54;13.70;99.90
3940;DHT22;1984;48.312;9.244;2022-10-16T03:13:20;13.60;99.90
3940;DHT22;1984;48.312;9.244;2022-10-16T03:15:46;13.60;99.90
3940;DHT22;1984;48.312;9.244;2022-10-16T03:18:11;13.60;99.90
3940;DHT22;1984;48.312;9.244;2022-10-16T03:20:37;13.60;99.90
3940;DHT22;1984;48.312;9.244;2022-10-16T03:23:03;13.60;99.90
3940;DHT22;1984;48.312;9.244;2022-10-16T03:25:28;13.60;99.90
3940;DHT22;1984;48.312;9.244;2022-10-16T03:27:54;13.60;99.90
3940;DHT22;1984;48.312;9.244;2022-10-16T03:30:19;13.60;99.90
3940;DHT22;1984;48.312;9.244;2022-10-16T03:32:46;13.60;99.90
3940;DHT22;1984;48.312;9.244;2022-10-16T03:35:11;13.60;99.90
3940;DHT22;1984;48.312;9.244;2022-10-16T03:37:37;13.60;99.90
3940;DHT22;1984;48.312;9.244;2022-10-16T03:40:03;13.60;99.90
3940;DHT22;1984;48.312;9.244;2022-10-16T03:42:29;13.60;99.90
3940;DHT22;1984;48.312;9.244;2022-10-16T03:44:54;13.60;99.90
3940;DHT22;1984;48.312;9.244;2022-10-16T03:47:20;13.50;99.90
3940;DHT22;1984;48.312;9.244;2022-10-16T03:49:48;13.60;99.90
3940;DHT22;1984;48.312;9.244;2022-10-16T03:52:14;13.60;99.90
3940;DHT22;1984;48.312;9.244;2022-10-16T03:54:40;13.60;99.90
3940;DHT22;1984;48.312;9.244;2022-10-16T03:57:05;13.50;99.90
3940;DHT22;1984;48.312;9.244;2022-10-16T03:59:31;13.60;99.90
3940;DHT22;1984;48.312;9.244;2022-10-16T04:01:56;13.60;99.90
3940;DHT22;1984;48.312;9.244;2022-10-16T04:04:22;13.60;99.90
3940;DHT22;1984;48.312;9.244;2022-10-16T04:06:47;13.60;99.90
3940;DHT22;1984;48.312;9.244;2022-10-16T04:09:13;13.60;99.90
3940;DHT22;1984;48.312;9.244;2022-10-16T04:11:38;13.60;99.90
3940;DHT22;1984;48.312;9.244;2022-10-16T04:14:04;13.50;99.90
3940;DHT22;1984;48.312;9.244;2022-10-16T04:16:30;13.50;99.90
3940;DHT22;1984;48.312;9.244;2022-10-16T04:18:55;13.50;99.90
3940;DHT22;1984;48.312;9.244;2022-10-16T04:21:21;13.50;99.90
3940;DHT22;1984;48.312;9.244;2022-10-16T04:23:47;13.50;99.90
3940;DHT22;1984;48.312;9.244;2022-10-16T04:26:13;13.50;99.90
3940;DHT22;1984;48.312;9.244;2022-10-16T04:28:38;13.50;99.90
3940;DHT22;1984;48.312;9.244;2022-10-16T04:31:05;13.50;99.90
3940;DHT22;1984;48.312;9.244;2022-10-16T04:33:30;13.50;99.90
3940;DHT22;1984;48.312;9.244;2022-10-16T04:35:57;13.50;99.90
3940;DHT22;1984;48.312;9.244;2022-10-16T04:38:23;13.40;99.90
3940;DHT22;1984;48.312;9.244;2022-10-16T04:40:48;13.50;99.90
3940;DHT22;1984;48.312;9.244;2022-10-16T04:43:14;13.40;99.90
3940;DHT22;1984;48.312;9.244;2022-10-16T04:45:39;13.40;99.90
3940;DHT22;1984;48.312;9.244;2022-10-16T04:48:05;13.40;99.90
3940;DHT22;1984;48.312;9.244;2022-10-16T04:50:30;13.50;99.90
3940;DHT22;1984;48.312;9.244;2022-10-16T04:52:56;13.50;99.90
3940;DHT22;1984;48.312;9.244;2022-10-16T04:55:21;13.50;99.90
3940;DHT22;1984;48.312;9.244;2022-10-16T04:57:47;13.50;99.90
3940;DHT22;1984;48.312;9.244;2022-10-16T05:00:12;13.50;99.90
3940;DHT22;1984;48.312;9.244;2022-10-16T05:02:38;13.50;99.90
3940;DHT22;1984;48.312;9.244;2022-10-16T05:05:04;13.50;99.90
3940;DHT22;1984;48.312;9.244;2022-10-16T05:07:30;13.50;99.90
3940;DHT22;1984;48.312;9.244;2022-10-16T05:09:55;13.50;99.90
3940;DHT22;1984;48.312;9.244;2022-10-16T05:12:21;13.50;99.90
3940;DHT22;1984;48.312;9.244;2022-10-16T05:14:46;13.50;99.90
3940;DHT22;1984;48.312;9.244;2022-10-16T05:17:12;13.50;99.90
3940;DHT22;1984;48.312;9.244;2022-10-16T05:19:37;13.50;99.90
3940;DHT22;1984;48.312;9.244;2022-10-16T05:22:03;13.50;99.90
3940;DHT22;1984;48.312;9.244;2022-10-16T05:24:28;13.50;99.90
3940;DHT22;1984;48.312;9.244;2022-10-16T05:26:54;13.40;99.90
3940;DHT22;1984;48.312;9.244;2022-10-16T05:29:20;13.30;99.90
3940;DHT22;1984;48.312;9.244;2022-10-16T05:31:45;13.20;99.90
3940;DHT22;1984;48.312;9.244;2022-10-16T05:34:11;13.30;99.90
3940;DHT22;1984;48.312;9.244;2022-10-16T05:36:37;13.20;99.90
3940;DHT22;1984;48.312;9.244;2022-10-16T05:39:03;13.30;99.90
3940;DHT22;1984;48.312;9.244;2022-10-16T05:41:28;13.20;99.90
3940;DHT22;1984;48.312;9.244;2022-10-16T05:43:54;13.20;99.90
3940;DHT22;1984;48.312;9.244;2022-10-16T05:46:20;13.20;99.90
3940;DHT22;1984;48.312;9.244;2022-10-16T05:48:45;13.20;99.90
3940;DHT22;1984;48.312;9.244;2022-10-16T05:51:13;13.20;99.90
3940;DHT22;1984;48.312;9.244;2022-10-16T05:53:39;13.10;99.90
3940;DHT22;1984;48.312;9.244;2022-10-16T05:56:07;13.10;99.90
3940;DHT22;1984;48.312;9.244;2022-10-16T05:58:34;13.10;99.90
3940;DHT22;1984;48.312;9.244;2022-10-16T06:01:13;13.10;99.90
3940;DHT22;1984;48.312;9.244;2022-10-16T06:03:40;13.10;99.90
3940;DHT22;1984;48.312;9.244;2022-10-16T06:06:13;13.20;99.90
3940;DHT22;1984;48.312;9.244;2022-10-16T06:08:40;13.20;99.90
3940;DHT22;1984;48.312;9.244;2022-10-16T06:11:09;13.30;99.90
3940;DHT22;1984;48.312;9.244;2022-10-16T06:13:35;13.30;99.90
3940;DHT22;1984;48.312;9.244;2022-10-16T06:16:01;13.40;99.90
3940;DHT22;1984;48.312;9.244;2022-10-16T06:18:28;13.40;99.90
3940;DHT22;1984;48.312;9.244;2022-10-16T06:20:54;13.50;99.90
3940;DHT22;1984;48.312;9.244;2022-10-16T06:23:20;13.50;99.90
3940;DHT22;1984;48.312;9.244;2022-10-16T06:25:46;13.50;99.90
3940;DHT22;1984;48.312;9.244;2022-10-16T06:28:13;13.50;99.90
3940;DHT22;1984;48.312;9.244;2022-10-16T06:30:38;13.50;99.90
3940;DHT22;1984;48.312;9.244;2022-10-16T06:33:04;13.50;99.90
3940;DHT22;1984;48.312;9.244;2022-10-16T06:35:29;13.60;99.90
3940;DHT22;1984;48.312;9.244;2022-10-16T06:37:57;13.60;99.90
3940;DHT22;1984;48.312;9.244;2022-10-16T06:40:22;13.70;99.90
3940;DHT22;1984;48.312;9.244;2022-10-16T06:42:48;13.80;99.90
3940;DHT22;1984;48.312;9.244;2022-10-16T06:45:13;13.90;99.90
3940;DHT22;1984;48.312;9.244;2022-10-16T06:47:39;14.00;99.90
3940;DHT22;1984;48.312;9.244;2022-10-16T06:50:05;14.20;99.90
3940;DHT22;1984;48.312;9.244;2022-10-16T06:52:32;14.30;99.90
3940;DHT22;1984;48.312;9.244;2022-10-16T06:54:58;14.30;99.90
3940;DHT22;1984;48.312;9.244;2022-10-16T06:57:23;14.50;99.90
3940;DHT22;1984;48.312;9.244;2022-10-16T06:59:49;14.70;99.90
3940;DHT22;1984;48.312;9.244;2022-10-16T07:02:15;14.70;99.90
3940;DHT22;1984;48.312;9.244;2022-10-16T07:04:40;14.80;99.90
3940;DHT22;1984;48.312;9.244;2022-10-16T07:07:06;14.80;99.90
3940;DHT22;1984;48.312;9.244;2022-10-16T07:09:31;14.80;99.90
3940;DHT22;1984;48.312;9.244;2022-10-16T07:11:57;14.90;99.90
3940;DHT22;1984;48.312;9.244;2022-10-16T07:14:22;14.90;99.90
3940;DHT22;1984;48.312;9.244;2022-10-16T07:16:48;14.90;99.90
3940;DHT22;1984;48.312;9.244;2022-10-16T07:19:15;15.00;99.90
3940;DHT22;1984;48.312;9.244;2022-10-16T07:21:42;15.00;99.90
3940;DHT22;1984;48.312;9.244;2022-10-16T07:24:15;15.00;99.90
3940;DHT22;1984;48.312;9.244;2022-10-16T07:26:42;15.00;99.90
3940;DHT22;1984;48.312;9.244;2022-10-16T07:29:20;15.00;99.90
3940;DHT22;1984;48.312;9.244;2022-10-16T07:31:46;15.00;99.90
3940;DHT22;1984;48.312;9.244;2022-10-16T07:34:13;15.00;99.90
3940;DHT22;1984;48.312;9.244;2022-10-16T07:36:39;15.00;99.90
3940;DHT22;1984;48.312;9.244;2022-10-16T07:39:05;15.00;99.90
3940;DHT22;1984;48.312;9.244;2022-10-16T07:41:31;15.00;99.90
3940;DHT22;1984;48.312;9.244;2022-10-16T07:43:58;15.00;99.90
3940;DHT22;1984;48.312;9.244;2022-10-16T07:46:25;15.10;99.90
3940;DHT22;1984;48.312;9.244;2022-10-16T07:48:51;15.10;99.90
3940;DHT22;1984;48.312;9.244;2022-10-16T07:51:19;15.10;99.90
3940;DHT22;1984;48.312;9.244;2022-10-16T07:53:45;15.10;99.90
3940;DHT22;1984;48.312;9.244;2022-10-16T07:56:12;15.20;99.90
3940;DHT22;1984;48.312;9.244;2022-10-16T07:58:38;15.30;99.90
3940;DHT22;1984;48.312;9.244;2022-10-16T08:01:06;15.30;99.90
3940;DHT22;1984;48.312;9.244;2022-10-16T08:03:32;15.40;99.90
3940;DHT22;1984;48.312;9.244;2022-10-16T08:05:58;15.40;99.90
3940;DHT22;1984;48.312;9.244;2022-10-16T08:08:25;15.40;99.90
3940;DHT22;1984;48.312;9.244;2022-10-16T08:10:50;15.50;99.90
3940;DHT22;1984;48.312;9.244;2022-10-16T08:13:16;15.50;99.90
3940;DHT22;1984;48.312;9.244;2022-10-16T08:15:43;15.60;99.90
3940;DHT22;1984;48.312;9.244;2022-10-16T08:18:10;15.70;99.90
3940;DHT22;1984;48.312;9.244;2022-10-16T08:20:36;15.80;99.90
3940;DHT22;1984;48.312;9.244;2022-10-16T08:23:02;15.80;99.90
3940;DHT22;1984;48.312;9.244;2022-10-16T08:25:28;15.90;99.90
3940;DHT22;1984;48.312;9.244;2022-10-16T08:27:53;15.90;99.90
3940;DHT22;1984;48.312;9.244;2022-10-16T08:30:21;15.90;99.90
3940;DHT22;1984;48.312;9.244;2022-10-16T08:32:47;16.00;99.90
3940;DHT22;1984;48.312;9.244;2022-10-16T08:35:13;16.00;99.90
3940;DHT22;1984;48.312;9.244;2022-10-16T08:37:40;16.10;99.90
3940;DHT22;1984;48.312;9.244;2022-10-16T08:40:29;16.10;99.90
3940;DHT22;1984;48.312;9.244;2022-10-16T08:43:31;16.10;99.90
3940;DHT22;1984;48.312;9.244;2022-10-16T08:46:27;16.10;99.90
3940;DHT22;1984;48.312;9.244;2022-10-16T08:48:56;16.20;99.90
3940;DHT22;1984;48.312;9.244;2022-10-16T08:51:31;16.20;99.90
3940;DHT22;1984;48.312;9.244;2022-10-16T08:54:01;16.30;99.90
3940;DHT22;1984;48.312;9.244;2022-10-16T08:56:28;16.30;99.90
3940;DHT22;1984;48.312;9.244;2022-10-16T08:58:54;16.30;99.90
3940;DHT22;1984;48.312;9.244;2022-10-16T09:01:22;16.40;99.90
3940;DHT22;1984;48.312;9.244;2022-10-16T09:09:09;16.50;99.90
3940;DHT22;1984;48.312;9.244;2022-10-16T09:12:03;16.60;99.90
3940;DHT22;1984;48.312;9.244;2022-10-16T09:22:38;17.10;99.90
3940;DHT22;1984;48.312;9.244;2022-10-16T09:25:15;17.20;99.90
3940;DHT22;1984;48.312;9.244;2022-10-16T09:27:44;17.30;99.90
3940;DHT22;1984;48.312;9.244;2022-10-16T09:30:21;17.40;99.90
3940;DHT22;1984;48.312;9.244;2022-10-16T09:32:52;17.50;99.90
3940;DHT22;1984;48.312;9.244;2022-10-16T09:35:22;17.60;99.90
3940;DHT22;1984;48.312;9.244;2022-10-16T09:37:52;17.60;99.90
3940;DHT22;1984;48.312;9.244;2022-10-16T09:40:30;17.60;99.90
3940;DHT22;1984;48.312;9.244;2022-10-16T09:48:43;17.50;99.90
3940;DHT22;1984;48.312;9.244;2022-10-16T09:51:30;17.60;99.90
3940;DHT22;1984;48.312;9.244;2022-10-16T09:54:01;17.60;99.90
3940;DHT22;1984;48.312;9.244;2022-10-16T09:56:28;17.70;99.90
3940;DHT22;1984;48.312;9.244;2022-10-16T09:58:57;17.90;99.90
3940;DHT22;1984;48.312;9.244;2022-10-16T10:01:38;17.90;99.90
3940;DHT22;1984;48.312;9.244;2022-10-16T10:04:04;18.00;99.90
3940;DHT22;1984;48.312;9.244;2022-10-16T10:06:51;18.00;99.90
3940;DHT22;1984;48.312;9.244;2022-10-16T10:09:24;18.00;99.90
3940;DHT22;1984;48.312;9.244;2022-10-16T10:11:52;18.00;99.90
3940;DHT22;1984;48.312;9.244;2022-10-16T10:14:26;18.00;99.90
3940;DHT22;1984;48.312;9.244;2022-10-16T10:17:01;18.00;99.90
3940;DHT22;1984;48.312;9.244;2022-10-16T10:19:27;18.00;99.90
3940;DHT22;1984;48.312;9.244;2022-10-16T10:21:53;18.00;99.90
3940;DHT22;1984;48.312;9.244;2022-10-16T10:24:19;18.00;99.90
3940;DHT22;1984;48.312;9.244;2022-10-16T10:30:01;18.00;99.90
3940;DHT22;1984;48.312;9.244;2022-10-16T10:32:36;18.00;99.90
3940;DHT22;1984;48.312;9.244;2022-10-16T10:38:12;18.00;99.90
3940;DHT22;1984;48.312;9.244;2022-10-16T10:40:51;18.10;99.90
3940;DHT22;1984;48.312;9.244;2022-10-16T10:46:21;18.20;99.90
3940;DHT22;1984;48.312;9.244;2022-10-16T10:54:47;19.90;99.90
3940;DHT22;1984;48.312;9.244;2022-10-16T10:59:53;22.00;99.90
3940;DHT22;1984;48.312;9.244;2022-10-16T11:07:57;23.40;99.90
3940;DHT22;1984;48.312;9.244;2022-10-16T11:10:47;23.50;99.90
3940;DHT22;1984;48.312;9.244;2022-10-16T11:13:38;23.50;99.90
3940;DHT22;1984;48.312;9.244;2022-10-16T11:16:21;23.70;99.90
3940;DHT22;1984;48.312;9.244;2022-10-16T11:24:35;23.80;99.90
3940;DHT22;1984;48.312;9.244;2022-10-16T11:27:06;23.60;99.90
3940;DHT22;1984;48.312;9.244;2022-10-16T11:29:35;23.60;99.90
3940;DHT22;1984;48.312;9.244;2022-10-16T11:32:22;23.70;99.90
3940;DHT22;1984;48.312;9.244;2022-10-16T11:35:01;23.60;99.90
3940;DHT22;1984;48.312;9.244;2022-10-16T11:37:32;23.70;99.90
3940;DHT22;1984;48.312;9.244;2022-10-16T11:40:32;23.70;99.90
3940;DHT22;1984;48.312;9.244;2022-10-16T11:43:06;23.70;99.90
3940;DHT22;1984;48.312;9.244;2022-10-16T11:45:49;23.60;99.90
3940;DHT22;1984;48.312;9.244;2022-10-16T11:48:55;23.40;99.90
3940;DHT22;1984;48.312;9.244;2022-10-16T11:51:42;23.30;99.90
3940;DHT22;1984;48.312;9.244;2022-10-16T11:54:20;23.00;99.90
3940;DHT22;1984;48.312;9.244;2022-10-16T11:56:52;22.70;99.90
3940;DHT22;1984;48.312;9.244;2022-10-16T12:04:43;22.40;99.90
3940;DHT22;1984;48.312;9.244;2022-10-16T12:07:18;22.40;99.90
3940;DHT22;1984;48.312;9.244;2022-10-16T12:09:47;22.40;99.90
3940;DHT22;1984;48.312;9.244;2022-10-16T12:17:35;22.90;99.90
3940;DHT22;1984;48.312;9.244;2022-10-16T12:23:03;22.80;99.90
3940;DHT22;1984;48.312;9.244;2022-10-16T12:25:35;22.70;99.90
3940;DHT22;1984;48.312;9.244;2022-10-16T12:28:04;22.50;99.90
3940;DHT22;1984;48.312;9.244;2022-10-16T12:30:35;22.40;99.90
3940;DHT22;1984;48.312;9.244;2022-10-16T12:33:06;22.30;99.90
3940;DHT22;1984;48.312;9.244;2022-10-16T12:35:45;22.30;99.90
3940;DHT22;1984;48.312;9.244;2022-10-16T12:38:19;22.30;99.90
3940;DHT22;1984;48.312;9.244;2022-10-16T12:41:03;22.20;99.90
3940;DHT22;1984;48.312;9.244;2022-10-16T12:43:46;22.20;99.90
3940;DHT22;1984;48.312;9.244;2022-10-16T12:48:40;22.00;99.90
3940;DHT22;1984;48.312;9.244;2022-10-16T12:51:10;22.00;99.90
3940;DHT22;1984;48.312;9.244;2022-10-16T12:53:37;22.10;99.90
3940;DHT22;1984;48.312;9.244;2022-10-16T12:56:09;22.20;99.90
3940;DHT22;1984;48.312;9.244;2022-10-16T13:09:25;22.40;99.90
3940;DHT22;1984;48.312;9.244;2022-10-16T13:14:36;22.10;99.90
3940;DHT22;1984;48.312;9.244;2022-10-16T13:19:55;21.60;99.90
3940;DHT22;1984;48.312;9.244;2022-10-16T13:28:08;21.60;99.90
3940;DHT22;1984;48.312;9.244;2022-10-16T13:30:44;21.70;99.90
3940;DHT22;1984;48.312;9.244;2022-10-16T13:36:00;21.80;99.90
3940;DHT22;1984;48.312;9.244;2022-10-16T13:38:27;21.70;99.90
3940;DHT22;1984;48.312;9.244;2022-10-16T13:41:15;21.70;99.90
3940;DHT22;1984;48.312;9.244;2022-10-16T13:43:52;21.60;99.90
3940;DHT22;1984;48.312;9.244;2022-10-16T13:46:20;21.60;99.90
3940;DHT22;1984;48.312;9.244;2022-10-16T13:49:05;21.60;99.90
3940;DHT22;1984;48.312;9.244;2022-10-16T13:51:32;21.70;99.90
3940;DHT22;1984;48.312;9.244;2022-10-16T13:53:58;21.70;99.90
3940;DHT22;1984;48.312;9.244;2022-10-16T13:56:29;21.80;99.90
3940;DHT22;1984;48.312;9.244;2022-10-16T13:59:03;21.70;99.90
3940;DHT22;1984;48.312;9.244;2022-10-16T14:04:06;21.70;99.90
3940;DHT22;1984;48.312;9.244;2022-10-16T14:06:32;21.60;99.90
3940;DHT22;1984;48.312;9.244;2022-10-16T14:09:05;21.50;99.90
3940;DHT22;1984;48.312;9.244;2022-10-16T14:11:32;21.40;99.90
3940;DHT22;1984;48.312;9.244;2022-10-16T14:13:58;21.40;99.90
3940;DHT22;1984;48.312;9.244;2022-10-16T14:16:27;21.40;99.90
3940;DHT22;1984;48.312;9.244;2022-10-16T14:19:04;21.40;99.90
3940;DHT22;1984;48.312;9.244;2022-10-16T14:21:33;21.40;99.90
3940;DHT22;1984;48.312;9.244;2022-10-16T14:23:59;21.30;99.90
3940;DHT22;1984;48.312;9.244;2022-10-16T14:26:42;21.10;99.90
3940;DHT22;1984;48.312;9.244;2022-10-16T14:29:19;20.90;99.90
3940;DHT22;1984;48.312;9.244;2022-10-16T14:32:02;20.90;99.90
3940;DHT22;1984;48.312;9.244;2022-10-16T14:34:38;20.80;99.90
3940;DHT22;1984;48.312;9.244;2022-10-16T14:37:13;20.90;99.90
3940;DHT22;1984;48.312;9.244;2022-10-16T14:39:40;20.80;99.90
3940;DHT22;1984;48.312;9.244;2022-10-16T14:42:14;20.80;99.90
3940;DHT22;1984;48.312;9.244;2022-10-16T14:44:42;20.80;99.90
3940;DHT22;1984;48.312;9.244;2022-10-16T14:47:15;20.70;99.90
3940;DHT22;1984;48.312;9.244;2022-10-16T14:49:42;20.70;99.90
3940;DHT22;1984;48.312;9.244;2022-10-16T14:52:12;20.70;99.90
3940;DHT22;1984;48.312;9.244;2022-10-16T14:54:38;20.60;99.90
3940;DHT22;1984;48.312;9.244;2022-10-16T14:57:04;20.60;99.90
3940;DHT22;1984;48.312;9.244;2022-10-16T14:59:39;20.60;99.90
3940;DHT22;1984;48.312;9.244;2022-10-16T15:02:25;20.50;99.90
3940;DHT22;1984;48.312;9.244;2022-10-16T15:04:52;20.50;99.90
3940;DHT22;1984;48.312;9.244;2022-10-16T15:07:18;20.40;99.90
3940;DHT22;1984;48.312;9.244;2022-10-16T15:09:43;20.40;99.90
3940;DHT22;1984;48.312;9.244;2022-10-16T15:12:09;20.30;99.90
3940;DHT22;1984;48.312;9.244;2022-10-16T15:14:34;20.30;99.90
3940;DHT22;1984;48.312;9.244;2022-10-16T15:17:00;20.20;99.90
3940;DHT22;1984;48.312;9.244;2022-10-16T15:19:26;20.20;99.90
3940;DHT22;1984;48.312;9.244;2022-10-16T15:21:51;20.10;99.90
3940;DHT22;1984;48.312;9.244;2022-10-16T15:24:18;20.10;99.90
3940;DHT22;1984;48.312;9.244;2022-10-16T15:26:43;20.10;99.90
3940;DHT22;1984;48.312;9.244;2022-10-16T15:29:11;20.10;99.90
3940;DHT22;1984;48.312;9.244;2022-10-16T15:31:37;20.10;99.90
3940;DHT22;1984;48.312;9.244;2022-10-16T15:34:03;20.10;99.90
3940;DHT22;1984;48.312;9.244;2022-10-16T15:36:36;20.00;99.90
3940;DHT22;1984;48.312;9.244;2022-10-16T15:39:10;20.00;99.90
3940;DHT22;1984;48.312;9.244;2022-10-16T15:41:37;19.90;99.90
3940;DHT22;1984;48.312;9.244;2022-10-16T15:44:03;19.90;99.90
3940;DHT22;1984;48.312;9.244;2022-10-16T15:46:29;19.90;99.90
3940;DHT22;1984;48.312;9.244;2022-10-16T15:48:57;19.90;99.90
3940;DHT22;1984;48.312;9.244;2022-10-16T15:51:24;19.90;99.90
3940;DHT22;1984;48.312;9.244;2022-10-16T15:53:50;19.90;99.90
3940;DHT22;1984;48.312;9.244;2022-10-16T15:56:16;19.90;99.90
3940;DHT22;1984;48.312;9.244;2022-10-16T15:58:43;19.80;99.90
3940;DHT22;1984;48.312;9.244;2022-10-16T16:01:09;19.70;99.90
3940;DHT22;1984;48.312;9.244;2022-10-16T16:03:38;19.60;99.90
3940;DHT22;1984;48.312;9.244;2022-10-16T16:06:09;19.50;99.90
3940;DHT22;1984;48.312;9.244;2022-10-16T16:08:34;19.40;99.90
3940;DHT22;1984;48.312;9.244;2022-10-16T16:11:02;19.40;99.90
3940;DHT22;1984;48.312;9.244;2022-10-16T16:13:29;19.30;99.90
3940;DHT22;1984;48.312;9.244;2022-10-16T16:15:54;19.20;99.90
3940;DHT22;1984;48.312;9.244;2022-10-16T16:18:20;19.20;99.90
3940;DHT22;1984;48.312;9.244;2022-10-16T16:20:46;19.10;99.90
3940;DHT22;1984;48.312;9.244;2022-10-16T16:23:11;19.00;99.90
3940;DHT22;1984;48.312;9.244;2022-10-16T16:25:37;18.90;99.90
3940;DHT22;1984;48.312;9.244;2022-10-16T16:28:02;18.80;99.90
3940;DHT22;1984;48.312;9.244;2022-10-16T16:30:28;18.60;99.90
3940;DHT22;1984;48.312;9.244;2022-10-16T16:32:53;18.30;99.90
3940;DHT22;1984;48.312;9.244;2022-10-16T16:35:19;18.20;99.90
3940;DHT22;1984;48.312;9.244;2022-10-16T16:37:46;18.10;99.90
3940;DHT22;1984;48.312;9.244;2022-10-16T16:40:11;17.90;99.90
3940;DHT22;1984;48.312;9.244;2022-10-16T16:42:37;17.80;99.90
3940;DHT22;1984;48.312;9.244;2022-10-16T16:45:02;17.70;99.90
3940;DHT22;1984;48.312;9.244;2022-10-16T16:47:28;17.70;99.90
3940;DHT22;1984;48.312;9.244;2022-10-16T16:49:54;17.40;99.90
3940;DHT22;1984;48.312;9.244;2022-10-16T16:52:19;17.10;99.90
3940;DHT22;1984;48.312;9.244;2022-10-16T16:54:45;17.00;99.90
3940;DHT22;1984;48.312;9.244;2022-10-16T16:57:18;16.90;99.90
3940;DHT22;1984;48.312;9.244;2022-10-16T16:59:44;16.90;99.90
3940;DHT22;1984;48.312;9.244;2022-10-16T17:02:10;16.90;99.90
3940;DHT22;1984;48.312;9.244;2022-10-16T17:04:35;16.80;99.90
3940;DHT22;1984;48.312;9.244;2022-10-16T17:07:01;16.70;99.90
3940;DHT22;1984;48.312;9.244;2022-10-16T17:09:26;16.50;99.90
3940;DHT22;1984;48.312;9.244;2022-10-16T17:11:52;16.40;99.90
3940;DHT22;1984;48.312;9.244;2022-10-16T17:14:18;16.30;99.90
3940;DHT22;1984;48.312;9.244;2022-10-16T17:16:43;16.30;99.90
3940;DHT22;1984;48.312;9.244;2022-10-16T17:19:14;16.30;99.90
3940;DHT22;1984;48.312;9.244;2022-10-16T17:21:41;16.20;99.90
3940;DHT22;1984;48.312;9.244;2022-10-16T17:24:07;16.30;99.90
3940;DHT22;1984;48.312;9.244;2022-10-16T17:26:33;16.20;99.90
3940;DHT22;1984;48.312;9.244;2022-10-16T17:29:03;16.20;99.90
3940;DHT22;1984;48.312;9.244;2022-10-16T17:31:31;16.20;99.90
3940;DHT22;1984;48.312;9.244;2022-10-16T17:33:58;16.10;99.90
3940;DHT22;1984;48.312;9.244;2022-10-16T17:36:24;16.00;99.90
3940;DHT22;1984;48.312;9.244;2022-10-16T17:38:50;15.90;99.90
3940;DHT22;1984;48.312;9.244;2022-10-16T17:41:21;15.90;99.90
3940;DHT22;1984;48.312;9.244;2022-10-16T17:43:47;15.80;99.90
3940;DHT22;1984;48.312;9.244;2022-10-16T17:46:14;15.70;99.90
3940;DHT22;1984;48.312;9.244;2022-10-16T17:48:42;15.60;99.90
3940;DHT22;1984;48.312;9.244;2022-10-16T17:51:10;15.50;99.90
3940;DHT22;1984;48.312;9.244;2022-10-16T17:53:37;15.50;99.90
3940;DHT22;1984;48.312;9.244;2022-10-16T17:56:08;15.20;99.90
3940;DHT22;1984;48.312;9.244;2022-10-16T17:58:34;15.10;99.90
3940;DHT22;1984;48.312;9.244;2022-10-16T18:01:00;15.10;99.90
3940;DHT22;1984;48.312;9.244;2022-10-16T18:03:26;15.10;99.90